sensor_id;sensor_type;location;lat;lon;timestamp;temperature;humidity
20070;DHT22;10195;50.868;4.382;2023-04-07T00:01:22;10.20;99.90
20070;DHT22;10195;50.868;4.382;2023-04-07T00:03:48;10.30;99.90
20070;DHT22;10195;50.868;4.382;2023-04-07T00:06:13;10.30;99.90
20070;DHT22;10195;50.868;4.382;2023-04-07T00:08:40;10.20;99.90
20070;DHT22;10195;50.868;4.382;2023-04-07T00:11:06;10.20;99.90
20070;DHT22;10195;50.868;4.382;2023-04-07T00:13:33;10.30;99.90
20070;DHT22;10195;50.868;4.382;2023-04-07T00:15:58;10.40;99.90
20070;DHT22;10195;50.868;4.382;2023-04-07T00:18:24;10.40;99.90
20070;DHT22;10195;50.868;4.382;2023-04-07T00:20:50;10.40;99.90
20070;DHT22;10195;50.868;4.382;2023-04-07T00:23:16;10.40;99.90
20070;DHT22;10195;50.868;4.382;2023-04-07T00:25:42;10.30;99.90
20070;DHT22;10195;50.868;4.382;2023-04-07T00:28:07;10.30;99.90
20070;DHT22;10195;50.868;4.382;2023-04-07T00:30:33;10.30;99.90
20070;DHT22;10195;50.868;4.382;2023-04-07T00:32:58;10.20;99.90
20070;DHT22;10195;50.868;4.382;2023-04-07T00:35:24;10.30;99.90
20070;DHT22;10195;50.868;4.382;2023-04-07T00:37:50;10.20;99.90
20070;DHT22;10195;50.868;4.382;2023-04-07T00:40:16;10.20;99.90
20070;DHT22;10195;50.868;4.382;2023-04-07T00:42:42;10.10;99.90
20070;DHT22;10195;50.868;4.382;2023-04-07T00:45:08;10.20;99.90
20070;DHT22;10195;50.868;4.382;2023-04-07T00:47:35;10.30;99.90
20070;DHT22;10195;50.868;4.382;2023-04-07T00:50:03;10.30;99.90
20070;DHT22;10195;50.868;4.382;2023-04-07T00:52:31;10.20;99.90
20070;DHT22;10195;50.868;4.382;2023-04-07T00:54:58;10.20;99.90
20070;DHT22;10195;50.868;4.382;2023-04-07T00:57:25;10.10;99.90
20070;DHT22;10195;50.868;4.382;2023-04-07T00:59:51;10.20;99.90
20070;DHT22;10195;50.868;4.382;2023-04-07T01:05:04;10.20;99.90
20070;DHT22;10195;50.868;4.382;2023-04-07T01:07:35;10.20;99.90
20070;DHT22;10195;50.868;4.382;2023-04-07T01:10:05;10.20;99.90
20070;DHT22;10195;50.868;4.382;2023-04-07T01:15:10;10.30;99.90
20070;DHT22;10195;50.868;4.382;2023-04-07T01:17:41;10.40;99.90
20070;DHT22;10195;50.868;4.382;2023-04-07T01:20:11;10.40;99.90
20070;DHT22;10195;50.868;4.382;2023-04-07T01:23:01;10.30;99.90
20070;DHT22;10195;50.868;4.382;2023-04-07T01:31:08;10.10;99.90
20070;DHT22;10195;50.868;4.382;2023-04-07T01:33:36;10.20;99.90
20070;DHT22;10195;50.868;4.382;2023-04-07T01:36:04;10.10;99.90
20070;DHT22;10195;50.868;4.382;2023-04-07T01:38:32;10.20;99.90
20070;DHT22;10195;50.868;4.382;2023-04-07T01:40:58;10.20;99.90
20070;DHT22;10195;50.868;4.382;2023-04-07T01:43:25;10.20;99.90
20070;DHT22;10195;50.868;4.382;2023-04-07T01:45:53;10.20;99.90
20070;DHT22;10195;50.868;4.382;2023-04-07T01:48:20;10.00;99.90
20070;DHT22;10195;50.868;4.382;2023-04-07T01:50:47;10.00;99.90
20070;DHT22;10195;50.868;4.382;2023-04-07T01:53:14;9.90;99.90
20070;DHT22;10195;50.868;4.382;2023-04-07T01:55:41;9.90;99.90
20070;DHT22;10195;50.868;4.382;2023-04-07T01:58:07;10.00;99.90
20070;DHT22;10195;50.868;4.382;2023-04-07T02:00:33;10.00;99.90
20070;DHT22;10195;50.868;4.382;2023-04-07T02:03:04;10.10;99.90
20070;DHT22;10195;50.868;4.382;2023-04-07T02:05:33;10.10;99.90
20070;DHT22;10195;50.868;4.382;2023-04-07T02:08:04;10.10;99.90
20070;DHT22;10195;50.868;4.382;2023-04-07T02:10:32;10.00;99.90
20070;DHT22;10195;50.868;4.382;2023-04-07T02:13:00;9.90;99.90
20070;DHT22;10195;50.868;4.382;2023-04-07T02:15:29;10.00;99.90
20070;DHT22;10195;50.868;4.382;2023-04-07T02:17:58;10.10;99.90
20070;DHT22;10195;50.868;4.382;2023-04-07T02:20:25;10.00;99.90
20070;DHT22;10195;50.868;4.382;2023-04-07T02:22:52;9.90;99.90
20070;DHT22;10195;50.868;4.382;2023-04-07T02:25:28;9.90;99.90
20070;DHT22;10195;50.868;4.382;2023-04-07T02:27:55;9.80;99.90
20070;DHT22;10195;50.868;4.382;2023-04-07T02:30:21;9.70;99.90
20070;DHT22;10195;50.868;4.382;2023-04-07T02:32:47;9.70;99.90
20070;DHT22;10195;50.868;4.382;2023-04-07T02:35:13;9.80;99.90
20070;DHT22;10195;50.868;4.382;2023-04-07T02:37:39;9.70;99.90
20070;DHT22;10195;50.868;4.382;2023-04-07T02:40:05;9.60;99.90
20070;DHT22;10195;50.868;4.382;2023-04-07T02:42:31;9.70;99.90
20070;DHT22;10195;50.868;4.382;2023-04-07T02:44:57;9.80;99.90
20070;DHT22;10195;50.868;4.382;2023-04-07T02:47:23;9.80;99.90
20070;DHT22;10195;50.868;4.382;2023-04-07T02:49:49;9.80;99.90
20070;DHT22;10195;50.868;4.382;2023-04-07T02:52:15;9.70;99.90
20070;DHT22;10195;50.868;4.382;2023-04-07T02:54:43;9.70;99.90
20070;DHT22;10195;50.868;4.382;2023-04-07T02:57:09;9.70;99.90
20070;DHT22;10195;50.868;4.382;2023-04-07T02:59:34;9.80;99.90
20070;DHT22;10195;50.868;4.382;2023-04-07T03:02:00;9.70;99.90
20070;DHT22;10195;50.868;4.382;2023-04-07T03:04:26;9.70;99.90
20070;DHT22;10195;50.868;4.382;2023-04-07T03:06:51;9.60;99.90
20070;DHT22;10195;50.868;4.382;2023-04-07T03:09:17;9.60;99.90
20070;DHT22;10195;50.868;4.382;2023-04-07T03:11:43;9.60;99.90
20070;DHT22;10195;50.868;4.382;2023-04-07T03:14:08;9.60;99.90
20070;DHT22;10195;50.868;4.382;2023-04-07T03:16:34;9.50;99.90
20070;DHT22;10195;50.868;4.382;2023-04-07T03:19:00;9.60;99.90
20070;DHT22;10195;50.868;4.382;2023-04-07T03:21:25;9.60;99.90
20070;DHT22;10195;50.868;4.382;2023-04-07T03:23:53;9.70;99.90
20070;DHT22;10195;50.868;4.382;2023-04-07T03:26:19;9.60;99.90
20070;DHT22;10195;50.868;4.382;2023-04-07T03:28:46;9.60;99.90
20070;DHT22;10195;50.868;4.382;2023-04-07T03:31:11;9.60;99.90
20070;DHT22;10195;50.868;4.382;2023-04-07T03:33:37;9.50;99.90
20070;DHT22;10195;50.868;4.382;2023-04-07T03:36:03;9.60;99.90
20070;DHT22;10195;50.868;4.382;2023-04-07T03:38:28;9.60;99.90
20070;DHT22;10195;50.868;4.382;2023-04-07T03:40:54;9.50;99.90
20070;DHT22;10195;50.868;4.382;2023-04-07T03:43:19;9.40;99.90
20070;DHT22;10195;50.868;4.382;2023-04-07T03:45:46;9.30;99.90
20070;DHT22;10195;50.868;4.382;2023-04-07T03:48:11;9.40;99.90
20070;DHT22;10195;50.868;4.382;2023-04-07T03:50:38;9.40;99.90
20070;DHT22;10195;50.868;4.382;2023-04-07T03:53:04;9.30;99.90
20070;DHT22;10195;50.868;4.382;2023-04-07T03:55:30;9.30;99.90
20070;DHT22;10195;50.868;4.382;2023-04-07T03:57:56;9.20;99.90
20070;DHT22;10195;50.868;4.382;2023-04-07T04:00:22;9.30;99.90
20070;DHT22;10195;50.868;4.382;2023-04-07T04:02:48;9.20;99.90
20070;DHT22;10195;50.868;4.382;2023-04-07T04:05:13;9.30;99.90
20070;DHT22;10195;50.868;4.382;2023-04-07T04:07:39;9.40;99.90
20070;DHT22;10195;50.868;4.382;2023-04-07T04:10:05;9.40;99.90
20070;DHT22;10195;50.868;4.382;2023-04-07T04:12:31;9.40;99.90
20070;DHT22;10195;50.868;4.382;2023-04-07T04:14:57;9.40;99.90
20070;DHT22;10195;50.868;4.382;2023-04-07T04:17:23;9.50;99.90
20070;DHT22;10195;50.868;4.382;2023-04-07T04:19:49;9.40;99.90
20070;DHT22;10195;50.868;4.382;2023-04-07T04:22:15;9.30;99.90
20070;DHT22;10195;50.868;4.382;2023-04-07T04:24:41;9.20;99.90
20070;DHT22;10195;50.868;4.382;2023-04-07T04:27:07;9.20;99.90
20070;DHT22;10195;50.868;4.382;2023-04-07T04:29:33;9.10;99.90
20070;DHT22;10195;50.868;4.382;2023-04-07T04:31:58;9.20;99.90
20070;DHT22;10195;50.868;4.382;2023-04-07T04:34:24;9.20;99.90
20070;DHT22;10195;50.868;4.382;2023-04-07T04:36:50;9.30;99.90
20070;DHT22;10195;50.868;4.382;2023-04-07T04:39:16;9.20;99.90
20070;DHT22;10195;50.868;4.382;2023-04-07T04:41:41;9.40;99.90
20070;DHT22;10195;50.868;4.382;2023-04-07T04:44:07;9.30;99.90
20070;DHT22;10195;50.868;4.382;2023-04-07T04:46:33;9.30;99.90
20070;DHT22;10195;50.868;4.382;2023-04-07T04:48:58;9.40;99.90
20070;DHT22;10195;50.868;4.382;2023-04-07T04:51:24;9.50;99.90
20070;DHT22;10195;50.868;4.382;2023-04-07T04:53:50;9.50;99.90
20070;DHT22;10195;50.868;4.382;2023-04-07T04:56:16;9.50;99.90
20070;DHT22;10195;50.868;4.382;2023-04-07T04:58:41;9.50;99.90
20070;DHT22;10195;50.868;4.382;2023-04-07T05:01:11;9.50;99.90
20070;DHT22;10195;50.868;4.382;2023-04-07T05:03:37;9.50;99.90
20070;DHT22;10195;50.868;4.382;2023-04-07T05:06:03;9.40;99.90
20070;DHT22;10195;50.868;4.382;2023-04-07T05:08:28;9.40;99.90
20070;DHT22;10195;50.868;4.382;2023-04-07T05:10:54;9.40;99.90
20070;DHT22;10195;50.868;4.382;2023-04-07T05:13:20;9.40;99.90
20070;DHT22;10195;50.868;4.382;2023-04-07T05:15:46;9.30;99.90
20070;DHT22;10195;50.868;4.382;2023-04-07T05:18:11;9.20;99.90
20070;DHT22;10195;50.868;4.382;2023-04-07T05:20:37;9.10;99.90
20070;DHT22;10195;50.868;4.382;2023-04-07T05:23:03;9.00;99.90
20070;DHT22;10195;50.868;4.382;2023-04-07T05:25:29;9.00;99.90
20070;DHT22;10195;50.868;4.382;2023-04-07T05:27:54;9.00;99.90
20070;DHT22;10195;50.868;4.382;2023-04-07T05:30:20;9.00;99.90
20070;DHT22;10195;50.868;4.382;2023-04-07T05:32:46;9.00;99.90
20070;DHT22;10195;50.868;4.382;2023-04-07T05:35:12;8.90;99.90
20070;DHT22;10195;50.868;4.382;2023-04-07T05:37:37;8.80;99.90
20070;DHT22;10195;50.868;4.382;2023-04-07T05:40:03;8.80;99.90
20070;DHT22;10195;50.868;4.382;2023-04-07T05:42:29;9.00;99.90
20070;DHT22;10195;50.868;4.382;2023-04-07T05:44:55;9.00;99.90
20070;DHT22;10195;50.868;4.382;2023-04-07T05:47:20;9.10;99.90
20070;DHT22;10195;50.868;4.382;2023-04-07T05:49:46;9.20;99.90
20070;DHT22;10195;50.868;4.382;2023-04-07T05:52:13;9.20;99.90
20070;DHT22;10195;50.868;4.382;2023-04-07T05:54:38;9.30;99.90
20070;DHT22;10195;50.868;4.382;2023-04-07T05:57:07;9.30;99.90
20070;DHT22;10195;50.868;4.382;2023-04-07T05:59:33;9.40;99.90
20070;DHT22;10195;50.868;4.382;2023-04-07T06:01:59;9.50;99.90
20070;DHT22;10195;50.868;4.382;2023-04-07T06:04:25;9.60;99.90
20070;DHT22;10195;50.868;4.382;2023-04-07T06:06:51;9.50;99.90
20070;DHT22;10195;50.868;4.382;2023-04-07T06:09:23;9.50;99.90
20070;DHT22;10195;50.868;4.382;2023-04-07T06:11:48;9.50;99.90
20070;DHT22;10195;50.868;4.382;2023-04-07T06:14:14;9.50;99.90
20070;DHT22;10195;50.868;4.382;2023-04-07T06:16:40;9.30;99.90
20070;DHT22;10195;50.868;4.382;2023-04-07T06:19:06;9.40;99.90
20070;DHT22;10195;50.868;4.382;2023-04-07T06:21:32;9.50;99.90
20070;DHT22;10195;50.868;4.382;2023-04-07T06:23:58;9.50;99.90
20070;DHT22;10195;50.868;4.382;2023-04-07T06:26:24;9.50;99.90
20070;DHT22;10195;50.868;4.382;2023-04-07T06:28:49;9.70;99.90
20070;DHT22;10195;50.868;4.382;2023-04-07T06:31:16;9.80;99.90
20070;DHT22;10195;50.868;4.382;2023-04-07T06:33:42;9.90;99.90
20070;DHT22;10195;50.868;4.382;2023-04-07T06:36:07;10.10;99.90
20070;DHT22;10195;50.868;4.382;2023-04-07T06:38:33;10.10;99.90
20070;DHT22;10195;50.868;4.382;2023-04-07T06:40:59;10.20;99.90
20070;DHT22;10195;50.868;4.382;2023-04-07T06:43:24;10.40;99.90
20070;DHT22;10195;50.868;4.382;2023-04-07T06:45:50;10.10;99.90
20070;DHT22;10195;50.868;4.382;2023-04-07T06:48:15;10.20;99.90
20070;DHT22;10195;50.868;4.382;2023-04-07T06:50:45;9.80;99.90
20070;DHT22;10195;50.868;4.382;2023-04-07T06:53:11;9.50;99.90
20070;DHT22;10195;50.868;4.382;2023-04-07T06:55:37;9.30;99.90
20070;DHT22;10195;50.868;4.382;2023-04-07T06:58:02;9.20;99.90
20070;DHT22;10195;50.868;4.382;2023-04-07T07:00:28;9.00;99.90
20070;DHT22;10195;50.868;4.382;2023-04-07T07:02:55;9.00;99.90
20070;DHT22;10195;50.868;4.382;2023-04-07T07:05:21;8.90;99.90
20070;DHT22;10195;50.868;4.382;2023-04-07T07:07:48;8.90;99.90
20070;DHT22;10195;50.868;4.382;2023-04-07T07:10:14;8.90;99.90
20070;DHT22;10195;50.868;4.382;2023-04-07T07:12:39;9.00;99.90
20070;DHT22;10195;50.868;4.382;2023-04-07T07:15:06;9.00;99.90
20070;DHT22;10195;50.868;4.382;2023-04-07T07:17:32;9.20;99.90
20070;DHT22;10195;50.868;4.382;2023-04-07T07:19:57;9.30;99.90
20070;DHT22;10195;50.868;4.382;2023-04-07T07:22:23;9.70;99.90
20070;DHT22;10195;50.868;4.382;2023-04-07T07:24:49;10.00;99.90
20070;DHT22;10195;50.868;4.382;2023-04-07T07:27:15;10.30;99.90
20070;DHT22;10195;50.868;4.382;2023-04-07T07:29:41;10.60;99.90
20070;DHT22;10195;50.868;4.382;2023-04-07T07:32:06;10.90;99.90
20070;DHT22;10195;50.868;4.382;2023-04-07T07:34:32;11.10;99.90
20070;DHT22;10195;50.868;4.382;2023-04-07T07:36:58;11.00;99.90
20070;DHT22;10195;50.868;4.382;2023-04-07T07:39:24;11.20;99.90
20070;DHT22;10195;50.868;4.382;2023-04-07T07:41:50;11.20;99.90
20070;DHT22;10195;50.868;4.382;2023-04-07T07:44:16;11.20;99.90
20070;DHT22;10195;50.868;4.382;2023-04-07T07:46:44;11.10;99.90
20070;DHT22;10195;50.868;4.382;2023-04-07T07:49:10;10.80;99.90
20070;DHT22;10195;50.868;4.382;2023-04-07T07:51:36;10.70;99.90
20070;DHT22;10195;50.868;4.382;2023-04-07T07:54:02;10.70;99.90
20070;DHT22;10195;50.868;4.382;2023-04-07T07:56:28;10.30;99.90
20070;DHT22;10195;50.868;4.382;2023-04-07T07:58:53;10.30;99.90
20070;DHT22;10195;50.868;4.382;2023-04-07T08:01:19;10.20;99.90
20070;DHT22;10195;50.868;4.382;2023-04-07T08:03:45;10.20;99.90
20070;DHT22;10195;50.868;4.382;2023-04-07T08:06:11;10.30;99.90
20070;DHT22;10195;50.868;4.382;2023-04-07T08:08:37;10.50;99.90
20070;DHT22;10195;50.868;4.382;2023-04-07T08:11:03;10.50;99.90
20070;DHT22;10195;50.868;4.382;2023-04-07T08:13:28;10.40;99.90
20070;DHT22;10195;50.868;4.382;2023-04-07T08:15:54;10.20;99.90
20070;DHT22;10195;50.868;4.382;2023-04-07T08:18:20;10.10;99.90
20070;DHT22;10195;50.868;4.382;2023-04-07T08:20:46;9.80;99.90
20070;DHT22;10195;50.868;4.382;2023-04-07T08:23:11;9.50;99.90
20070;DHT22;10195;50.868;4.382;2023-04-07T08:25:37;9.40;99.90
20070;DHT22;10195;50.868;4.382;2023-04-07T08:28:04;9.10;99.90
20070;DHT22;10195;50.868;4.382;2023-04-07T08:30:30;9.20;99.90
20070;DHT22;10195;50.868;4.382;2023-04-07T08:32:59;9.50;99.90
20070;DHT22;10195;50.868;4.382;2023-04-07T08:35:25;9.80;99.90
20070;DHT22;10195;50.868;4.382;2023-04-07T08:37:50;9.70;99.90
20070;DHT22;10195;50.868;4.382;2023-04-07T08:40:16;9.70;99.90
20070;DHT22;10195;50.868;4.382;2023-04-07T08:42:46;9.90;99.90
20070;DHT22;10195;50.868;4.382;2023-04-07T08:45:14;9.90;99.90
20070;DHT22;10195;50.868;4.382;2023-04-07T08:47:42;9.80;99.90
20070;DHT22;10195;50.868;4.382;2023-04-07T08:50:09;9.80;99.90
20070;DHT22;10195;50.868;4.382;2023-04-07T08:52:55;9.80;99.90
20070;DHT22;10195;50.868;4.382;2023-04-07T08:55:22;9.90;99.90
20070;DHT22;10195;50.868;4.382;2023-04-07T08:57:48;10.30;99.90
20070;DHT22;10195;50.868;4.382;2023-04-07T09:00:14;10.60;99.90
20070;DHT22;10195;50.868;4.382;2023-04-07T09:02:42;10.40;99.90
20070;DHT22;10195;50.868;4.382;2023-04-07T09:05:13;10.50;99.90
20070;DHT22;10195;50.868;4.382;2023-04-07T09:07:39;10.50;99.90
20070;DHT22;10195;50.868;4.382;2023-04-07T09:10:06;11.10;99.90
20070;DHT22;10195;50.868;4.382;2023-04-07T09:12:33;12.00;99.90
20070;DHT22;10195;50.868;4.382;2023-04-07T09:14:59;12.60;99.90
20070;DHT22;10195;50.868;4.382;2023-04-07T09:17:25;13.00;99.90
20070;DHT22;10195;50.868;4.382;2023-04-07T09:19:55;12.50;99.90
20070;DHT22;10195;50.868;4.382;2023-04-07T09:22:40;12.40;99.90
20070;DHT22;10195;50.868;4.382;2023-04-07T09:25:21;13.00;99.90
20070;DHT22;10195;50.868;4.382;2023-04-07T09:30:23;13.10;99.90
20070;DHT22;10195;50.868;4.382;2023-04-07T09:32:49;13.10;99.90
20070;DHT22;10195;50.868;4.382;2023-04-07T09:35:16;13.50;99.90
20070;DHT22;10195;50.868;4.382;2023-04-07T09:37:41;13.10;99.90
20070;DHT22;10195;50.868;4.382;2023-04-07T09:40:07;12.50;99.90
20070;DHT22;10195;50.868;4.382;2023-04-07T09:42:33;12.00;99.90
20070;DHT22;10195;50.868;4.382;2023-04-07T09:45:02;11.90;99.90
20070;DHT22;10195;50.868;4.382;2023-04-07T09:47:30;11.80;99.90
20070;DHT22;10195;50.868;4.382;2023-04-07T09:49:57;11.90;99.90
20070;DHT22;10195;50.868;4.382;2023-04-07T09:52:49;12.00;99.90
20070;DHT22;10195;50.868;4.382;2023-04-07T09:55:22;11.90;99.90
20070;DHT22;10195;50.868;4.382;2023-04-07T09:57:49;12.50;99.90
20070;DHT22;10195;50.868;4.382;2023-04-07T10:00:15;13.80;99.90
20070;DHT22;10195;50.868;4.382;2023-04-07T10:02:42;13.70;99.90
20070;DHT22;10195;50.868;4.382;2023-04-07T10:05:09;13.50;99.90
20070;DHT22;10195;50.868;4.382;2023-04-07T10:07:35;12.80;99.90
20070;DHT22;10195;50.868;4.382;2023-04-07T10:10:02;12.40;99.90
20070;DHT22;10195;50.868;4.382;2023-04-07T10:12:29;12.00;99.90
20070;DHT22;10195;50.868;4.382;2023-04-07T10:14:57;11.50;99.90
20070;DHT22;10195;50.868;4.382;2023-04-07T10:17:23;11.50;99.90
20070;DHT22;10195;50.868;4.382;2023-04-07T10:19:49;12.60;99.90
20070;DHT22;10195;50.868;4.382;2023-04-07T10:22:16;13.30;99.90
20070;DHT22;10195;50.868;4.382;2023-04-07T10:25:05;14.00;99.90
20070;DHT22;10195;50.868;4.382;2023-04-07T10:27:38;13.50;99.90
20070;DHT22;10195;50.868;4.382;2023-04-07T10:30:12;13.40;99.90
20070;DHT22;10195;50.868;4.382;2023-04-07T10:32:48;12.40;99.90
20070;DHT22;10195;50.868;4.382;2023-04-07T10:35:15;12.10;99.90
20070;DHT22;10195;50.868;4.382;2023-04-07T10:40:35;11.90;99.90
20070;DHT22;10195;50.868;4.382;2023-04-07T10:43:02;11.40;99.90
20070;DHT22;10195;50.868;4.382;2023-04-07T10:48:19;11.00;99.90
20070;DHT22;10195;50.868;4.382;2023-04-07T10:50:46;11.00;99.90
20070;DHT22;10195;50.868;4.382;2023-04-07T10:53:32;11.10;99.90
20070;DHT22;10195;50.868;4.382;2023-04-07T10:55:59;11.10;99.90
20070;DHT22;10195;50.868;4.382;2023-04-07T10:58:32;11.00;99.90
20070;DHT22;10195;50.868;4.382;2023-04-07T11:03:32;11.60;99.90
20070;DHT22;10195;50.868;4.382;2023-04-07T11:06:08;11.90;99.90
20070;DHT22;10195;50.868;4.382;2023-04-07T11:08:39;11.90;99.90
20070;DHT22;10195;50.868;4.382;2023-04-07T11:11:07;12.00;99.90
20070;DHT22;10195;50.868;4.382;2023-04-07T11:13:40;12.40;99.90
20070;DHT22;10195;50.868;4.382;2023-04-07T11:16:07;12.50;99.90
20070;DHT22;10195;50.868;4.382;2023-04-07T11:18:35;12.60;99.90
20070;DHT22;10195;50.868;4.382;2023-04-07T11:21:01;12.80;99.90
20070;DHT22;10195;50.868;4.382;2023-04-07T11:23:27;12.70;99.90
20070;DHT22;10195;50.868;4.382;2023-04-07T11:26:03;12.30;99.90
20070;DHT22;10195;50.868;4.382;2023-04-07T11:28:29;11.90;99.90
20070;DHT22;10195;50.868;4.382;2023-04-07T11:30:56;11.80;99.90
20070;DHT22;10195;50.868;4.382;2023-04-07T11:33:27;11.70;99.90
20070;DHT22;10195;50.868;4.382;2023-04-07T11:35:55;11.50;99.90
20070;DHT22;10195;50.868;4.382;2023-04-07T11:38:25;11.00;99.90
20070;DHT22;10195;50.868;4.382;2023-04-07T11:40:52;10.90;99.90
20070;DHT22;10195;50.868;4.382;2023-04-07T11:43:20;11.10;99.90
20070;DHT22;10195;50.868;4.382;2023-04-07T11:46:06;11.40;99.90
20070;DHT22;10195;50.868;4.382;2023-04-07T11:48:33;11.70;99.90
20070;DHT22;10195;50.868;4.382;2023-04-07T11:51:00;11.70;99.90
20070;DHT22;10195;50.868;4.382;2023-04-07T11:53:34;11.90;99.90
20070;DHT22;10195;50.868;4.382;2023-04-07T11:56:02;11.90;99.90
20070;DHT22;10195;50.868;4.382;2023-04-07T11:58:28;12.00;99.90
20070;DHT22;10195;50.868;4.382;2023-04-07T12:00:55;12.30;99.90
20070;DHT22;10195;50.868;4.382;2023-04-07T12:03:22;12.70;99.90
20070;DHT22;10195;50.868;4.382;2023-04-07T12:05:47;12.80;99.90
20070;DHT22;10195;50.868;4.382;2023-04-07T12:08:14;12.50;99.90
20070;DHT22;10195;50.868;4.382;2023-04-07T12:10:44;12.20;99.90
20070;DHT22;10195;50.868;4.382;2023-04-07T12:13:12;11.80;99.90
20070;DHT22;10195;50.868;4.382;2023-04-07T12:15:38;11.30;99.90
20070;DHT22;10195;50.868;4.382;2023-04-07T12:18:04;10.90;99.90
20070;DHT22;10195;50.868;4.382;2023-04-07T12:20:30;10.80;99.90
20070;DHT22;10195;50.868;4.382;2023-04-07T12:22:57;10.80;99.90
20070;DHT22;10195;50.868;4.382;2023-04-07T12:25:23;10.80;99.90
20070;DHT22;10195;50.868;4.382;2023-04-07T12:27:48;10.60;99.90
20070;DHT22;10195;50.868;4.382;2023-04-07T12:30:14;10.80;99.90
20070;DHT22;10195;50.868;4.382;2023-04-07T12:32:40;11.00;99.90
20070;DHT22;10195;50.868;4.382;2023-04-07T12:35:06;11.30;99.90
20070;DHT22;10195;50.868;4.382;2023-04-07T12:37:32;11.30;99.90
20070;DHT22;10195;50.868;4.382;2023-04-07T12:39:57;11.30;99.90
20070;DHT22;10195;50.868;4.382;2023-04-07T12:42:24;11.30;99.90
20070;DHT22;10195;50.868;4.382;2023-04-07T12:44:49;11.40;99.90
20070;DHT22;10195;50.868;4.382;2023-04-07T12:47:16;11.40;99.90
20070;DHT22;10195;50.868;4.382;2023-04-07T12:49:42;11.50;99.90
20070;DHT22;10195;50.868;4.382;2023-04-07T12:52:07;11.70;99.90
20070;DHT22;10195;50.868;4.382;2023-04-07T12:54:33;11.30;99.90
20070;DHT22;10195;50.868;4.382;2023-04-07T12:56:59;11.10;99.90
20070;DHT22;10195;50.868;4.382;2023-04-07T12:59:25;10.80;99.90
20070;DHT22;10195;50.868;4.382;2023-04-07T13:01:52;10.60;99.90
20070;DHT22;10195;50.868;4.382;2023-04-07T13:04:17;10.50;99.90
20070;DHT22;10195;50.868;4.382;2023-04-07T13:06:43;10.50;99.90
20070;DHT22;10195;50.868;4.382;2023-04-07T13:09:10;10.50;99.90
20070;DHT22;10195;50.868;4.382;2023-04-07T13:11:36;10.50;99.90
20070;DHT22;10195;50.868;4.382;2023-04-07T13:14:03;10.70;99.90
20070;DHT22;10195;50.868;4.382;2023-04-07T13:16:31;10.80;99.90
20070;DHT22;10195;50.868;4.382;2023-04-07T13:18:57;10.80;99.90
20070;DHT22;10195;50.868;4.382;2023-04-07T13:21:22;10.90;99.90
20070;DHT22;10195;50.868;4.382;2023-04-07T13:23:50;11.00;99.90
20070;DHT22;10195;50.868;4.382;2023-04-07T13:26:16;11.00;99.90
20070;DHT22;10195;50.868;4.382;2023-04-07T13:28:41;10.90;99.90
20070;DHT22;10195;50.868;4.382;2023-04-07T13:31:10;10.70;99.90
20070;DHT22;10195;50.868;4.382;2023-04-07T13:33:40;10.60;99.90
20070;DHT22;10195;50.868;4.382;2023-04-07T13:36:07;10.60;99.90
20070;DHT22;10195;50.868;4.382;2023-04-07T13:38:32;10.70;99.90
20070;DHT22;10195;50.868;4.382;2023-04-07T13:40:58;10.70;99.90
20070;DHT22;10195;50.868;4.382;2023-04-07T13:43:24;10.70;99.90
20070;DHT22;10195;50.868;4.382;2023-04-07T13:45:49;10.90;99.90
20070;DHT22;10195;50.868;4.382;2023-04-07T13:48:16;11.00;99.90
20070;DHT22;10195;50.868;4.382;2023-04-07T13:50:41;11.20;99.90
20070;DHT22;10195;50.868;4.382;2023-04-07T13:53:07;11.10;99.90
20070;DHT22;10195;50.868;4.382;2023-04-07T13:55:32;11.20;99.90
20070;DHT22;10195;50.868;4.382;2023-04-07T13:57:58;11.10;99.90
20070;DHT22;10195;50.868;4.382;2023-04-07T14:00:27;11.30;99.90
20070;DHT22;10195;50.868;4.382;2023-04-07T14:02:52;11.40;99.90
20070;DHT22;10195;50.868;4.382;2023-04-07T14:05:20;11.80;99.90
20070;DHT22;10195;50.868;4.382;2023-04-07T14:07:47;11.90;99.90
20070;DHT22;10195;50.868;4.382;2023-04-07T14:10:14;11.80;99.90
20070;DHT22;10195;50.868;4.382;2023-04-07T14:12:39;11.90;99.90
20070;DHT22;10195;50.868;4.382;2023-04-07T14:15:06;11.80;99.90
20070;DHT22;10195;50.868;4.382;2023-04-07T14:17:33;11.60;99.90
20070;DHT22;10195;50.868;4.382;2023-04-07T14:19:58;11.40;99.90
20070;DHT22;10195;50.868;4.382;2023-04-07T14:22:25;11.10;99.90
20070;DHT22;10195;50.868;4.382;2023-04-07T14:24:51;11.00;99.90
20070;DHT22;10195;50.868;4.382;2023-04-07T14:27:16;11.10;99.90
20070;DHT22;10195;50.868;4.382;2023-04-07T14:29:46;11.20;99.90
20070;DHT22;10195;50.868;4.382;2023-04-07T14:32:12;11.30;99.90
20070;DHT22;10195;50.868;4.382;2023-04-07T14:34:37;11.20;99.90
20070;DHT22;10195;50.868;4.382;2023-04-07T14:37:03;11.30;99.90
20070;DHT22;10195;50.868;4.382;2023-04-07T14:39:29;11.20;99.90
20070;DHT22;10195;50.868;4.382;2023-04-07T14:41:54;11.20;99.90
20070;DHT22;10195;50.868;4.382;2023-04-07T14:44:20;11.20;99.90
20070;DHT22;10195;50.868;4.382;2023-04-07T14:46:46;11.00;99.90
20070;DHT22;10195;50.868;4.382;2023-04-07T14:49:13;10.80;99.90
20070;DHT22;10195;50.868;4.382;2023-04-07T14:51:39;10.70;99.90
20070;DHT22;10195;50.868;4.382;2023-04-07T14:54:05;10.80;99.90
20070;DHT22;10195;50.868;4.382;2023-04-07T14:56:31;11.10;99.90
20070;DHT22;10195;50.868;4.382;2023-04-07T14:58:57;11.00;99.90
20070;DHT22;10195;50.868;4.382;2023-04-07T15:01:22;11.00;99.90
20070;DHT22;10195;50.868;4.382;2023-04-07T15:03:50;11.00;99.90
20070;DHT22;10195;50.868;4.382;2023-04-07T15:06:18;11.20;99.90
20070;DHT22;10195;50.868;4.382;2023-04-07T15:08:44;11.50;99.90
20070;DHT22;10195;50.868;4.382;2023-04-07T15:11:10;11.50;99.90
20070;DHT22;10195;50.868;4.382;2023-04-07T15:13:35;11.50;99.90
20070;DHT22;10195;50.868;4.382;2023-04-07T15:16:12;11.40;99.90
20070;DHT22;10195;50.868;4.382;2023-04-07T15:18:40;11.00;99.90
20070;DHT22;10195;50.868;4.382;2023-04-07T15:21:08;10.90;99.90
20070;DHT22;10195;50.868;4.382;2023-04-07T15:23:35;11.00;99.90
20070;DHT22;10195;50.868;4.382;2023-04-07T15:26:02;10.90;99.90
20070;DHT22;10195;50.868;4.382;2023-04-07T15:28:28;11.00;99.90
20070;DHT22;10195;50.868;4.382;2023-04-07T15:30:54;11.00;99.90
20070;DHT22;10195;50.868;4.382;2023-04-07T15:33:20;11.00;99.90
20070;DHT22;10195;50.868;4.382;2023-04-07T15:35:45;11.00;99.90
20070;DHT22;10195;50.868;4.382;2023-04-07T15:38:11;11.00;99.90
20070;DHT22;10195;50.868;4.382;2023-04-07T15:40:38;11.10;99.90
20070;DHT22;10195;50.868;4.382;2023-04-07T15:43:04;11.10;99.90
20070;DHT22;10195;50.868;4.382;2023-04-07T15:45:31;11.30;99.90
20070;DHT22;10195;50.868;4.382;2023-04-07T15:47:57;11.40;99.90
20070;DHT22;10195;50.868;4.382;2023-04-07T15:50:23;11.60;99.90
20070;DHT22;10195;50.868;4.382;2023-04-07T15:52:49;11.70;99.90
20070;DHT22;10195;50.868;4.382;2023-04-07T15:55:15;11.30;99.90
20070;DHT22;10195;50.868;4.382;2023-04-07T15:57:41;11.00;99.90